sensor_id;sensor_type;location;lat;lon;timestamp;P1;durP1;ratioP1;P2;durP2;ratioP2
49384;SDS011;36795;45.028;38.968;2024-03-08T00:00:47;32.22;;;18.48;;
49384;SDS011;36795;45.028;38.968;2024-03-08T00:03:33;33.53;;;17.35;;
49384;SDS011;36795;45.028;38.968;2024-03-08T00:06:20;35.03;;;18.10;;
49384;SDS011;36795;45.028;38.968;2024-03-08T00:09:06;34.35;;;19.02;;
49384;SDS011;36795;45.028;38.968;2024-03-08T00:11:52;34.03;;;18.85;;
49384;SDS011;36795;45.028;38.968;2024-03-08T00:14:38;33.63;;;19.98;;
49384;SDS011;36795;45.028;38.968;2024-03-08T00:17:24;33.20;;;18.83;;
49384;SDS011;36795;45.028;38.968;2024-03-08T00:20:11;33.65;;;18.67;;
49384;SDS011;36795;45.028;38.968;2024-03-08T00:22:58;33.47;;;18.73;;
49384;SDS011;36795;45.028;38.968;2024-03-08T00:25:44;33.03;;;18.67;;
49384;SDS011;36795;45.028;38.968;2024-03-08T00:28:30;35.75;;;18.83;;
49384;SDS011;36795;45.028;38.968;2024-03-08T00:31:17;34.03;;;18.58;;
49384;SDS011;36795;45.028;38.968;2024-03-08T00:34:02;36.10;;;19.55;;
49384;SDS011;36795;45.028;38.968;2024-03-08T00:36:49;34.08;;;18.62;;
49384;SDS011;36795;45.028;38.968;2024-03-08T00:39:37;36.38;;;19.98;;
49384;SDS011;36795;45.028;38.968;2024-03-08T00:42:23;35.13;;;19.27;;
49384;SDS011;36795;45.028;38.968;2024-03-08T00:45:09;34.50;;;19.80;;
49384;SDS011;36795;45.028;38.968;2024-03-08T00:47:56;36.88;;;19.60;;
49384;SDS011;36795;45.028;38.968;2024-03-08T00:50:42;38.42;;;21.42;;
49384;SDS011;36795;45.028;38.968;2024-03-08T00:53:31;35.40;;;19.42;;
49384;SDS011;36795;45.028;38.968;2024-03-08T00:56:17;36.35;;;20.75;;
49384;SDS011;36795;45.028;38.968;2024-03-08T00:59:03;36.85;;;20.45;;
49384;SDS011;36795;45.028;38.968;2024-03-08T01:01:49;35.28;;;19.98;;
49384;SDS011;36795;45.028;38.968;2024-03-08T01:04:35;36.38;;;21.58;;
49384;SDS011;36795;45.028;38.968;2024-03-08T01:07:21;37.05;;;21.60;;
49384;SDS011;36795;45.028;38.968;2024-03-08T01:10:08;37.97;;;21.90;;
49384;SDS011;36795;45.028;38.968;2024-03-08T01:12:54;38.47;;;22.25;;
49384;SDS011;36795;45.028;38.968;2024-03-08T01:15:42;38.53;;;22.83;;
49384;SDS011;36795;45.028;38.968;2024-03-08T01:18:28;38.50;;;23.00;;
49384;SDS011;36795;45.028;38.968;2024-03-08T01:21:15;38.25;;;22.27;;
49384;SDS011;36795;45.028;38.968;2024-03-08T01:24:00;39.58;;;23.65;;
49384;SDS011;36795;45.028;38.968;2024-03-08T01:26:48;39.97;;;22.98;;
49384;SDS011;36795;45.028;38.968;2024-03-08T01:29:34;40.95;;;23.27;;
49384;SDS011;36795;45.028;38.968;2024-03-08T01:32:20;39.92;;;23.67;;
49384;SDS011;36795;45.028;38.968;2024-03-08T01:35:08;39.78;;;21.73;;
49384;SDS011;36795;45.028;38.968;2024-03-08T01:37:55;43.25;;;24.58;;
49384;SDS011;36795;45.028;38.968;2024-03-08T01:40:40;40.80;;;24.15;;
49384;SDS011;36795;45.028;38.968;2024-03-08T01:43:28;52.15;;;31.83;;
49384;SDS011;36795;45.028;38.968;2024-03-08T01:46:15;40.63;;;22.70;;
49384;SDS011;36795;45.028;38.968;2024-03-08T01:49:04;39.33;;;22.50;;
49384;SDS011;36795;45.028;38.968;2024-03-08T01:51:50;39.92;;;23.17;;
49384;SDS011;36795;45.028;38.968;2024-03-08T01:54:37;43.97;;;27.37;;
49384;SDS011;36795;45.028;38.968;2024-03-08T01:57:23;43.00;;;24.25;;
49384;SDS011;36795;45.028;38.968;2024-03-08T02:00:10;41.17;;;23.95;;
49384;SDS011;36795;45.028;38.968;2024-03-08T02:02:57;40.58;;;23.67;;
49384;SDS011;36795;45.028;38.968;2024-03-08T02:05:44;42.67;;;24.55;;
49384;SDS011;36795;45.028;38.968;2024-03-08T02:08:30;41.10;;;23.83;;
49384;SDS011;36795;45.028;38.968;2024-03-08T02:11:16;40.03;;;24.35;;
49384;SDS011;36795;45.028;38.968;2024-03-08T02:14:05;39.42;;;24.17;;
49384;SDS011;36795;45.028;38.968;2024-03-08T02:16:51;40.50;;;23.62;;
49384;SDS011;36795;45.028;38.968;2024-03-08T02:19:39;40.83;;;23.38;;
49384;SDS011;36795;45.028;38.968;2024-03-08T02:22:25;38.75;;;23.27;;
49384;SDS011;36795;45.028;38.968;2024-03-08T02:25:11;39.42;;;23.45;;
49384;SDS011;36795;45.028;38.968;2024-03-08T02:27:57;40.80;;;23.05;;
49384;SDS011;36795;45.028;38.968;2024-03-08T02:30:44;40.60;;;22.90;;
49384;SDS011;36795;45.028;38.968;2024-03-08T02:33:32;42.13;;;23.23;;
49384;SDS011;36795;45.028;38.968;2024-03-08T02:36:19;40.22;;;23.10;;
49384;SDS011;36795;45.028;38.968;2024-03-08T02:39:05;38.30;;;22.73;;
49384;SDS011;36795;45.028;38.968;2024-03-08T02:41:50;41.17;;;23.48;;
49384;SDS011;36795;45.028;38.968;2024-03-08T02:44:37;41.30;;;23.85;;
49384;SDS011;36795;45.028;38.968;2024-03-08T02:47:23;38.65;;;22.52;;
49384;SDS011;36795;45.028;38.968;2024-03-08T02:50:11;43.55;;;24.10;;
49384;SDS011;36795;45.028;38.968;2024-03-08T02:53:01;41.03;;;22.45;;
49384;SDS011;36795;45.028;38.968;2024-03-08T02:55:47;41.22;;;23.62;;
49384;SDS011;36795;45.028;38.968;2024-03-08T02:58:34;39.15;;;22.52;;
49384;SDS011;36795;45.028;38.968;2024-03-08T03:01:20;42.40;;;24.45;;
49384;SDS011;36795;45.028;38.968;2024-03-08T03:04:07;40.00;;;23.33;;
49384;SDS011;36795;45.028;38.968;2024-03-08T03:06:53;39.30;;;22.62;;
49384;SDS011;36795;45.028;38.968;2024-03-08T03:09:40;40.33;;;23.23;;
49384;SDS011;36795;45.028;38.968;2024-03-08T03:12:26;39.25;;;21.23;;
49384;SDS011;36795;45.028;38.968;2024-03-08T03:15:15;38.95;;;22.42;;
49384;SDS011;36795;45.028;38.968;2024-03-08T03:18:02;45.20;;;27.35;;
49384;SDS011;36795;45.028;38.968;2024-03-08T03:20:49;39.05;;;21.85;;
49384;SDS011;36795;45.028;38.968;2024-03-08T03:23:34;38.38;;;22.27;;
49384;SDS011;36795;45.028;38.968;2024-03-08T03:26:23;39.95;;;22.20;;
49384;SDS011;36795;45.028;38.968;2024-03-08T03:29:09;42.75;;;23.75;;
49384;SDS011;36795;45.028;38.968;2024-03-08T03:31:56;40.60;;;22.50;;
49384;SDS011;36795;45.028;38.968;2024-03-08T03:34:42;40.95;;;22.35;;
49384;SDS011;36795;45.028;38.968;2024-03-08T03:37:29;39.25;;;21.83;;
49384;SDS011;36795;45.028;38.968;2024-03-08T03:40:15;39.08;;;22.05;;
49384;SDS011;36795;45.028;38.968;2024-03-08T03:43:03;39.40;;;22.17;;
49384;SDS011;36795;45.028;38.968;2024-03-08T03:45:49;41.95;;;23.30;;
49384;SDS011;36795;45.028;38.968;2024-03-08T03:48:35;36.53;;;19.30;;
49384;SDS011;36795;45.028;38.968;2024-03-08T03:51:21;39.13;;;21.75;;
49384;SDS011;36795;45.028;38.968;2024-03-08T03:54:08;38.22;;;21.70;;
49384;SDS011;36795;45.028;38.968;2024-03-08T03:56:53;37.67;;;22.00;;
49384;SDS011;36795;45.028;38.968;2024-03-08T03:59:42;38.45;;;22.25;;
49384;SDS011;36795;45.028;38.968;2024-03-08T04:02:27;40.38;;;22.83;;
49384;SDS011;36795;45.028;38.968;2024-03-08T04:05:14;38.33;;;21.98;;
49384;SDS011;36795;45.028;38.968;2024-03-08T04:08:00;37.47;;;20.55;;
49384;SDS011;36795;45.028;38.968;2024-03-08T04:10:48;37.47;;;20.80;;
49384;SDS011;36795;45.028;38.968;2024-03-08T04:13:34;36.10;;;19.85;;
49384;SDS011;36795;45.028;38.968;2024-03-08T04:16:22;37.40;;;20.25;;
49384;SDS011;36795;45.028;38.968;2024-03-08T04:19:08;37.45;;;19.73;;
49384;SDS011;36795;45.028;38.968;2024-03-08T04:21:55;37.22;;;19.45;;
49384;SDS011;36795;45.028;38.968;2024-03-08T04:24:41;35.88;;;19.77;;
49384;SDS011;36795;45.028;38.968;2024-03-08T04:27:29;36.42;;;19.52;;
49384;SDS011;36795;45.028;38.968;2024-03-08T04:30:15;35.92;;;18.08;;
49384;SDS011;36795;45.028;38.968;2024-03-08T04:33:01;36.17;;;18.67;;
49384;SDS011;36795;45.028;38.968;2024-03-08T04:35:48;35.97;;;19.50;;
49384;SDS011;36795;45.028;38.968;2024-03-08T04:38:34;34.75;;;18.42;;
49384;SDS011;36795;45.028;38.968;2024-03-08T04:41:21;33.90;;;17.60;;
49384;SDS011;36795;45.028;38.968;2024-03-08T04:44:09;35.42;;;18.27;;
49384;SDS011;36795;45.028;38.968;2024-03-08T04:46:57;35.63;;;18.05;;
49384;SDS011;36795;45.028;38.968;2024-03-08T04:49:43;33.80;;;18.02;;
49384;SDS011;36795;45.028;38.968;2024-03-08T04:52:30;34.88;;;18.48;;
49384;SDS011;36795;45.028;38.968;2024-03-08T04:55:16;36.50;;;19.25;;
49384;SDS011;36795;45.028;38.968;2024-03-08T04:58:05;36.13;;;19.42;;
49384;SDS011;36795;45.028;38.968;2024-03-08T05:00:52;37.80;;;18.65;;
49384;SDS011;36795;45.028;38.968;2024-03-08T05:03:37;38.22;;;18.45;;
49384;SDS011;36795;45.028;38.968;2024-03-08T05:06:24;32.65;;;16.65;;
49384;SDS011;36795;45.028;38.968;2024-03-08T05:09:10;34.78;;;18.75;;
49384;SDS011;36795;45.028;38.968;2024-03-08T05:11:58;36.88;;;18.50;;
49384;SDS011;36795;45.028;38.968;2024-03-08T05:14:47;34.95;;;18.77;;
49384;SDS011;36795;45.028;38.968;2024-03-08T05:17:35;35.45;;;18.50;;
49384;SDS011;36795;45.028;38.968;2024-03-08T05:20:21;36.28;;;18.90;;
49384;SDS011;36795;45.028;38.968;2024-03-08T05:23:07;38.53;;;20.58;;
49384;SDS011;36795;45.028;38.968;2024-03-08T05:25:53;40.97;;;21.85;;
49384;SDS011;36795;45.028;38.968;2024-03-08T05:28:40;35.83;;;20.23;;
49384;SDS011;36795;45.028;38.968;2024-03-08T05:31:25;38.13;;;20.30;;
49384;SDS011;36795;45.028;38.968;2024-03-08T05:34:13;40.28;;;20.40;;
49384;SDS011;36795;45.028;38.968;2024-03-08T05:37:00;37.50;;;19.30;;
49384;SDS011;36795;45.028;38.968;2024-03-08T05:39:46;39.35;;;20.27;;
49384;SDS011;36795;45.028;38.968;2024-03-08T05:42:33;38.53;;;20.90;;
49384;SDS011;36795;45.028;38.968;2024-03-08T05:45:19;37.70;;;19.92;;
49384;SDS011;36795;45.028;38.968;2024-03-08T05:48:05;38.20;;;19.60;;
49384;SDS011;36795;45.028;38.968;2024-03-08T05:50:52;37.75;;;20.00;;
49384;SDS011;36795;45.028;38.968;2024-03-08T05:53:38;39.38;;;19.40;;
49384;SDS011;36795;45.028;38.968;2024-03-08T05:56:25;40.67;;;20.30;;
49384;SDS011;36795;45.028;38.968;2024-03-08T05:59:11;37.00;;;19.10;;
49384;SDS011;36795;45.028;38.968;2024-03-08T06:01:57;38.65;;;19.95;;
49384;SDS011;36795;45.028;38.968;2024-03-08T06:04:44;38.22;;;19.17;;
49384;SDS011;36795;45.028;38.968;2024-03-08T06:07:32;38.22;;;19.98;;
49384;SDS011;36795;45.028;38.968;2024-03-08T06:10:18;40.58;;;19.40;;
49384;SDS011;36795;45.028;38.968;2024-03-08T06:13:04;37.65;;;19.73;;
49384;SDS011;36795;45.028;38.968;2024-03-08T06:15:50;40.95;;;21.05;;
49384;SDS011;36795;45.028;38.968;2024-03-08T06:18:36;38.63;;;19.77;;
49384;SDS011;36795;45.028;38.968;2024-03-08T06:21:23;38.25;;;20.10;;
49384;SDS011;36795;45.028;38.968;2024-03-08T06:24:12;39.67;;;19.73;;
49384;SDS011;36795;45.028;38.968;2024-03-08T06:27:00;39.75;;;20.67;;
49384;SDS011;36795;45.028;38.968;2024-03-08T06:29:45;42.72;;;20.50;;
49384;SDS011;36795;45.028;38.968;2024-03-08T06:32:34;40.83;;;20.33;;
49384;SDS011;36795;45.028;38.968;2024-03-08T06:35:20;38.40;;;18.45;;
49384;SDS011;36795;45.028;38.968;2024-03-08T06:38:07;39.50;;;19.45;;
49384;SDS011;36795;45.028;38.968;2024-03-08T06:40:53;42.10;;;20.45;;
49384;SDS011;36795;45.028;38.968;2024-03-08T06:43:40;37.67;;;20.33;;
49384;SDS011;36795;45.028;38.968;2024-03-08T06:46:26;39.28;;;19.98;;
49384;SDS011;36795;45.028;38.968;2024-03-08T06:49:13;39.38;;;19.58;;
49384;SDS011;36795;45.028;38.968;2024-03-08T06:52:00;41.40;;;20.60;;
49384;SDS011;36795;45.028;38.968;2024-03-08T06:54:46;40.03;;;19.60;;
49384;SDS011;36795;45.028;38.968;2024-03-08T06:57:33;39.88;;;19.80;;
49384;SDS011;36795;45.028;38.968;2024-03-08T07:00:19;38.83;;;18.87;;
49384;SDS011;36795;45.028;38.968;2024-03-08T07:03:08;42.35;;;21.10;;
49384;SDS011;36795;45.028;38.968;2024-03-08T07:05:57;41.72;;;20.70;;
49384;SDS011;36795;45.028;38.968;2024-03-08T07:08:43;41.85;;;19.65;;
49384;SDS011;36795;45.028;38.968;2024-03-08T07:11:31;39.20;;;19.20;;
49384;SDS011;36795;45.028;38.968;2024-03-08T07:14:16;43.55;;;20.62;;
49384;SDS011;36795;45.028;38.968;2024-03-08T07:17:03;39.83;;;20.48;;
49384;SDS011;36795;45.028;38.968;2024-03-08T07:19:49;37.45;;;19.10;;
49384;SDS011;36795;45.028;38.968;2024-03-08T07:22:36;43.83;;;19.90;;
49384;SDS011;36795;45.028;38.968;2024-03-08T07:25:23;41.90;;;20.27;;
49384;SDS011;36795;45.028;38.968;2024-03-08T07:28:12;42.33;;;20.10;;
49384;SDS011;36795;45.028;38.968;2024-03-08T07:30:58;41.83;;;20.45;;
49384;SDS011;36795;45.028;38.968;2024-03-08T07:33:58;45.05;;;21.65;;
49384;SDS011;36795;45.028;38.968;2024-03-08T07:36:43;44.83;;;23.17;;
49384;SDS011;36795;45.028;38.968;2024-03-08T07:39:30;46.08;;;21.90;;
49384;SDS011;36795;45.028;38.968;2024-03-08T07:42:17;45.25;;;23.62;;
49384;SDS011;36795;45.028;38.968;2024-03-08T07:45:03;43.38;;;22.62;;
49384;SDS011;36795;45.028;38.968;2024-03-08T07:47:52;44.45;;;22.85;;
49384;SDS011;36795;45.028;38.968;2024-03-08T07:50:39;45.30;;;21.95;;
49384;SDS011;36795;45.028;38.968;2024-03-08T07:53:26;42.67;;;21.92;;
49384;SDS011;36795;45.028;38.968;2024-03-08T07:56:12;43.50;;;22.83;;
49384;SDS011;36795;45.028;38.968;2024-03-08T07:58:58;46.03;;;22.35;;
49384;SDS011;36795;45.028;38.968;2024-03-08T08:01:44;45.28;;;21.90;;
49384;SDS011;36795;45.028;38.968;2024-03-08T08:04:32;45.30;;;22.65;;
49384;SDS011;36795;45.028;38.968;2024-03-08T08:07:18;44.85;;;20.75;;
49384;SDS011;36795;45.028;38.968;2024-03-08T08:10:04;40.78;;;20.88;;
49384;SDS011;36795;45.028;38.968;2024-03-08T08:12:51;45.50;;;22.87;;
49384;SDS011;36795;45.028;38.968;2024-03-08T08:15:37;46.70;;;22.85;;
49384;SDS011;36795;45.028;38.968;2024-03-08T08:18:23;41.72;;;21.30;;
49384;SDS011;36795;45.028;38.968;2024-03-08T08:21:10;47.00;;;24.45;;
49384;SDS011;36795;45.028;38.968;2024-03-08T08:23:56;43.90;;;24.33;;
49384;SDS011;36795;45.028;38.968;2024-03-08T08:26:42;48.53;;;23.35;;
49384;SDS011;36795;45.028;38.968;2024-03-08T08:29:29;42.65;;;23.70;;
49384;SDS011;36795;45.028;38.968;2024-03-08T08:32:15;43.53;;;22.95;;
49384;SDS011;36795;45.028;38.968;2024-03-08T08:35:01;46.58;;;25.50;;
49384;SDS011;36795;45.028;38.968;2024-03-08T08:37:48;45.95;;;25.58;;
49384;SDS011;36795;45.028;38.968;2024-03-08T08:40:33;50.83;;;25.58;;
49384;SDS011;36795;45.028;38.968;2024-03-08T08:43:21;48.45;;;25.98;;
49384;SDS011;36795;45.028;38.968;2024-03-08T08:46:12;44.95;;;21.75;;
49384;SDS011;36795;45.028;38.968;2024-03-08T08:49:01;45.83;;;23.65;;
49384;SDS011;36795;45.028;38.968;2024-03-08T08:51:50;46.40;;;22.85;;
49384;SDS011;36795;45.028;38.968;2024-03-08T08:54:36;43.65;;;24.27;;
49384;SDS011;36795;45.028;38.968;2024-03-08T08:57:22;42.45;;;22.05;;
49384;SDS011;36795;45.028;38.968;2024-03-08T09:00:09;44.75;;;23.87;;
49384;SDS011;36795;45.028;38.968;2024-03-08T09:03:00;44.67;;;22.65;;
49384;SDS011;36795;45.028;38.968;2024-03-08T09:05:47;44.95;;;23.15;;
49384;SDS011;36795;45.028;38.968;2024-03-08T09:08:33;46.67;;;23.60;;
49384;SDS011;36795;45.028;38.968;2024-03-08T09:11:19;47.38;;;24.45;;
49384;SDS011;36795;45.028;38.968;2024-03-08T09:14:05;44.10;;;22.70;;
49384;SDS011;36795;45.028;38.968;2024-03-08T09:16:51;45.97;;;23.67;;
49384;SDS011;36795;45.028;38.968;2024-03-08T09:19:37;45.80;;;23.48;;
49384;SDS011;36795;45.028;38.968;2024-03-08T09:22:25;45.72;;;24.87;;
49384;SDS011;36795;45.028;38.968;2024-03-08T09:25:11;46.85;;;23.90;;
49384;SDS011;36795;45.028;38.968;2024-03-08T09:27:57;52.42;;;26.08;;
49384;SDS011;36795;45.028;38.968;2024-03-08T09:30:43;46.58;;;23.92;;
49384;SDS011;36795;45.028;38.968;2024-03-08T09:33:29;49.40;;;24.67;;
49384;SDS011;36795;45.028;38.968;2024-03-08T09:36:16;46.83;;;22.48;;
49384;SDS011;36795;45.028;38.968;2024-03-08T09:39:02;47.53;;;24.33;;
49384;SDS011;36795;45.028;38.968;2024-03-08T09:41:48;48.78;;;24.27;;
49384;SDS011;36795;45.028;38.968;2024-03-08T09:44:34;44.17;;;23.27;;
49384;SDS011;36795;45.028;38.968;2024-03-08T09:47:21;45.60;;;23.87;;
49384;SDS011;36795;45.028;38.968;2024-03-08T09:50:11;46.08;;;24.85;;
49384;SDS011;36795;45.028;38.968;2024-03-08T09:53:00;49.58;;;26.80;;
49384;SDS011;36795;45.028;38.968;2024-03-08T09:55:48;46.25;;;24.60;;
49384;SDS011;36795;45.028;38.968;2024-03-08T09:58:34;50.28;;;26.10;;
49384;SDS011;36795;45.028;38.968;2024-03-08T10:01:21;46.20;;;25.55;;
49384;SDS011;36795;45.028;38.968;2024-03-08T10:04:07;48.60;;;24.45;;
49384;SDS011;36795;45.028;38.968;2024-03-08T10:06:55;48.13;;;24.87;;
49384;SDS011;36795;45.028;38.968;2024-03-08T10:09:44;50.65;;;26.95;;
49384;SDS011;36795;45.028;38.968;2024-03-08T10:12:34;54.00;;;27.48;;
49384;SDS011;36795;45.028;38.968;2024-03-08T10:15:21;53.10;;;26.83;;
49384;SDS011;36795;45.028;38.968;2024-03-08T10:18:07;49.58;;;27.42;;
49384;SDS011;36795;45.028;38.968;2024-03-08T10:21:07;53.78;;;28.52;;
49384;SDS011;36795;45.028;38.968;2024-03-08T10:23:55;50.67;;;27.33;;
49384;SDS011;36795;45.028;38.968;2024-03-08T10:26:44;51.17;;;27.52;;
49384;SDS011;36795;45.028;38.968;2024-03-08T10:29:30;52.13;;;29.58;;
49384;SDS011;36795;45.028;38.968;2024-03-08T10:32:17;50.78;;;29.20;;
49384;SDS011;36795;45.028;38.968;2024-03-08T10:35:03;49.42;;;28.25;;
49384;SDS011;36795;45.028;38.968;2024-03-08T10:37:50;53.33;;;29.75;;
49384;SDS011;36795;45.028;38.968;2024-03-08T10:40:48;53.28;;;27.67;;
49384;SDS011;36795;45.028;38.968;2024-03-08T10:52:58;56.58;;;29.92;;
49384;SDS011;36795;45.028;38.968;2024-03-08T10:55:46;55.95;;;29.05;;
49384;SDS011;36795;45.028;38.968;2024-03-08T10:58:34;53.22;;;30.50;;
49384;SDS011;36795;45.028;38.968;2024-03-08T11:01:22;57.33;;;31.45;;
49384;SDS011;36795;45.028;38.968;2024-03-08T11:04:10;54.75;;;27.77;;
49384;SDS011;36795;45.028;38.968;2024-03-08T11:07:00;57.40;;;31.35;;
49384;SDS011;36795;45.028;38.968;2024-03-08T11:09:54;52.08;;;30.00;;
49384;SDS011;36795;45.028;38.968;2024-03-08T11:12:41;54.88;;;29.75;;
49384;SDS011;36795;45.028;38.968;2024-03-08T11:15:27;52.72;;;28.67;;
49384;SDS011;36795;45.028;38.968;2024-03-08T11:18:15;51.97;;;28.90;;
49384;SDS011;36795;45.028;38.968;2024-03-08T11:21:09;53.13;;;30.73;;
49384;SDS011;36795;45.028;38.968;2024-03-08T11:24:08;53.30;;;30.35;;
49384;SDS011;36795;45.028;38.968;2024-03-08T11:27:03;52.62;;;31.40;;
49384;SDS011;36795;45.028;38.968;2024-03-08T11:30:10;54.72;;;29.23;;
49384;SDS011;36795;45.028;38.968;2024-03-08T11:32:56;52.70;;;30.75;;
49384;SDS011;36795;45.028;38.968;2024-03-08T11:35:48;55.42;;;29.60;;
49384;SDS011;36795;45.028;38.968;2024-03-08T11:38:34;51.13;;;28.70;;
49384;SDS011;36795;45.028;38.968;2024-03-08T11:41:27;55.47;;;32.40;;
49384;SDS011;36795;45.028;38.968;2024-03-08T11:44:14;53.42;;;31.90;;
49384;SDS011;36795;45.028;38.968;2024-03-08T11:47:02;59.53;;;33.53;;
49384;SDS011;36795;45.028;38.968;2024-03-08T11:49:49;61.05;;;32.08;;
49384;SDS011;36795;45.028;38.968;2024-03-08T11:52:35;52.95;;;29.35;;
49384;SDS011;36795;45.028;38.968;2024-03-08T11:55:21;53.35;;;30.05;;
49384;SDS011;36795;45.028;38.968;2024-03-08T11:58:10;51.65;;;29.15;;
49384;SDS011;36795;45.028;38.968;2024-03-08T12:01:06;55.88;;;29.67;;
49384;SDS011;36795;45.028;38.968;2024-03-08T12:03:57;52.22;;;29.00;;
49384;SDS011;36795;45.028;38.968;2024-03-08T12:06:43;51.03;;;27.87;;
49384;SDS011;36795;45.028;38.968;2024-03-08T12:09:33;48.97;;;25.83;;
49384;SDS011;36795;45.028;38.968;2024-03-08T12:12:21;54.33;;;27.40;;
49384;SDS011;36795;45.028;38.968;2024-03-08T12:15:10;52.88;;;26.87;;
49384;SDS011;36795;45.028;38.968;2024-03-08T12:17:56;49.38;;;26.37;;
49384;SDS011;36795;45.028;38.968;2024-03-08T12:20:43;51.90;;;29.12;;
49384;SDS011;36795;45.028;38.968;2024-03-08T12:23:34;47.25;;;27.40;;
49384;SDS011;36795;45.028;38.968;2024-03-08T12:26:25;51.03;;;29.37;;
49384;SDS011;36795;45.028;38.968;2024-03-08T12:29:21;47.38;;;27.20;;
49384;SDS011;36795;45.028;38.968;2024-03-08T12:32:10;47.30;;;27.15;;
49384;SDS011;36795;45.028;38.968;2024-03-08T12:34:56;46.85;;;27.37;;
49384;SDS011;36795;45.028;38.968;2024-03-08T12:37:42;47.17;;;25.92;;
49384;SDS011;36795;45.028;38.968;2024-03-08T12:40:29;48.22;;;27.60;;
49384;SDS011;36795;45.028;38.968;2024-03-08T12:43:16;50.45;;;28.20;;
49384;SDS011;36795;45.028;38.968;2024-03-08T12:46:03;48.00;;;27.50;;
49384;SDS011;36795;45.028;38.968;2024-03-08T12:48:51;53.03;;;27.13;;
49384;SDS011;36795;45.028;38.968;2024-03-08T12:51:38;49.53;;;26.87;;
49384;SDS011;36795;45.028;38.968;2024-03-08T12:54:25;45.88;;;26.62;;
49384;SDS011;36795;45.028;38.968;2024-03-08T12:57:11;49.92;;;26.75;;
49384;SDS011;36795;45.028;38.968;2024-03-08T12:59:57;49.65;;;27.48;;
49384;SDS011;36795;45.028;38.968;2024-03-08T13:02:45;51.58;;;28.52;;
49384;SDS011;36795;45.028;38.968;2024-03-08T13:05:32;48.05;;;26.23;;
49384;SDS011;36795;45.028;38.968;2024-03-08T13:08:17;51.58;;;25.42;;
49384;SDS011;36795;45.028;38.968;2024-03-08T13:11:07;52.20;;;28.80;;
49384;SDS011;36795;45.028;38.968;2024-03-08T13:13:56;52.90;;;29.45;;
49384;SDS011;36795;45.028;38.968;2024-03-08T13:16:44;53.10;;;28.05;;
49384;SDS011;36795;45.028;38.968;2024-03-08T13:19:33;49.83;;;27.60;;
49384;SDS011;36795;45.028;38.968;2024-03-08T13:22:19;49.53;;;27.13;;
49384;SDS011;36795;45.028;38.968;2024-03-08T13:25:07;46.83;;;27.55;;
49384;SDS011;36795;45.028;38.968;2024-03-08T13:27:58;57.58;;;28.85;;
49384;SDS011;36795;45.028;38.968;2024-03-08T13:30:45;50.50;;;27.27;;
49384;SDS011;36795;45.028;38.968;2024-03-08T13:33:31;46.00;;;26.10;;
49384;SDS011;36795;45.028;38.968;2024-03-08T13:36:20;47.00;;;26.65;;
49384;SDS011;36795;45.028;38.968;2024-03-08T13:39:06;50.55;;;28.23;;
49384;SDS011;36795;45.028;38.968;2024-03-08T13:42:00;51.70;;;27.80;;
49384;SDS011;36795;45.028;38.968;2024-03-08T13:44:46;49.65;;;27.23;;
49384;SDS011;36795;45.028;38.968;2024-03-08T13:47:32;54.88;;;29.50;;
49384;SDS011;36795;45.028;38.968;2024-03-08T13:50:19;48.87;;;27.67;;
49384;SDS011;36795;45.028;38.968;2024-03-08T13:53:08;53.58;;;29.02;;
49384;SDS011;36795;45.028;38.968;2024-03-08T13:55:55;49.97;;;27.40;;
49384;SDS011;36795;45.028;38.968;2024-03-08T13:58:41;50.17;;;27.30;;
49384;SDS011;36795;45.028;38.968;2024-03-08T14:01:29;49.53;;;28.33;;
49384;SDS011;36795;45.028;38.968;2024-03-08T14:04:15;54.40;;;29.02;;
49384;SDS011;36795;45.028;38.968;2024-03-08T14:07:04;47.03;;;26.58;;
49384;SDS011;36795;45.028;38.968;2024-03-08T14:09:53;52.72;;;29.67;;
49384;SDS011;36795;45.028;38.968;2024-03-08T14:12:39;53.17;;;28.33;;
49384;SDS011;36795;45.028;38.968;2024-03-08T14:15:25;51.28;;;29.63;;
49384;SDS011;36795;45.028;38.968;2024-03-08T14:18:11;49.33;;;28.60;;
49384;SDS011;36795;45.028;38.968;2024-03-08T14:20:58;49.22;;;28.35;;
49384;SDS011;36795;45.028;38.968;2024-03-08T14:23:44;49.83;;;28.08;;
49384;SDS011;36795;45.028;38.968;2024-03-08T14:26:31;49.17;;;26.98;;
49384;SDS011;36795;45.028;38.968;2024-03-08T14:29:16;49.50;;;28.05;;
49384;SDS011;36795;45.028;38.968;2024-03-08T14:32:06;51.30;;;28.35;;
49384;SDS011;36795;45.028;38.968;2024-03-08T14:34:53;49.70;;;27.70;;
49384;SDS011;36795;45.028;38.968;2024-03-08T14:37:40;49.72;;;28.98;;
49384;SDS011;36795;45.028;38.968;2024-03-08T14:40:28;47.65;;;27.62;;
49384;SDS011;36795;45.028;38.968;2024-03-08T14:43:15;55.22;;;29.58;;
49384;SDS011;36795;45.028;38.968;2024-03-08T14:46:04;49.45;;;28.65;;
49384;SDS011;36795;45.028;38.968;2024-03-08T14:48:52;52.55;;;29.35;;
49384;SDS011;36795;45.028;38.968;2024-03-08T14:51:38;51.47;;;28.95;;
49384;SDS011;36795;45.028;38.968;2024-03-08T14:54:24;51.05;;;29.92;;
49384;SDS011;36795;45.028;38.968;2024-03-08T14:57:10;51.08;;;29.70;;
49384;SDS011;36795;45.028;38.968;2024-03-08T14:59:56;50.90;;;30.00;;
49384;SDS011;36795;45.028;38.968;2024-03-08T15:02:47;52.38;;;28.87;;
49384;SDS011;36795;45.028;38.968;2024-03-08T15:05:34;51.25;;;28.35;;
49384;SDS011;36795;45.028;38.968;2024-03-08T15:08:22;50.67;;;28.40;;
49384;SDS011;36795;45.028;38.968;2024-03-08T15:11:09;54.22;;;29.70;;
49384;SDS011;36795;45.028;38.968;2024-03-08T15:13:55;59.13;;;32.13;;
49384;SDS011;36795;45.028;38.968;2024-03-08T15:16:43;56.55;;;29.75;;
49384;SDS011;36795;45.028;38.968;2024-03-08T15:19:28;51.17;;;28.38;;
49384;SDS011;36795;45.028;38.968;2024-03-08T15:22:15;57.00;;;32.30;;
49384;SDS011;36795;45.028;38.968;2024-03-08T15:25:04;55.50;;;31.42;;
49384;SDS011;36795;45.028;38.968;2024-03-08T15:27:50;53.42;;;30.17;;
49384;SDS011;36795;45.028;38.968;2024-03-08T15:30:40;56.80;;;30.67;;
49384;SDS011;36795;45.028;38.968;2024-03-08T15:33:35;57.58;;;32.75;;
49384;SDS011;36795;45.028;38.968;2024-03-08T15:36:33;56.28;;;31.40;;
49384;SDS011;36795;45.028;38.968;2024-03-08T15:40:15;52.43;;;29.17;;
49384;SDS011;36795;45.028;38.968;2024-03-08T15:43:08;54.72;;;30.30;;
49384;SDS011;36795;45.028;38.968;2024-03-08T15:45:54;63.83;;;30.70;;
49384;SDS011;36795;45.028;38.968;2024-03-08T15:48:40;53.50;;;28.67;;
49384;SDS011;36795;45.028;38.968;2024-03-08T15:51:27;52.85;;;30.55;;
49384;SDS011;36795;45.028;38.968;2024-03-08T15:54:13;53.83;;;30.70;;
49384;SDS011;36795;45.028;38.968;2024-03-08T15:56:58;56.60;;;30.37;;
49384;SDS011;36795;45.028;38.968;2024-03-08T15:59:45;52.47;;;28.90;;
49384;SDS011;36795;45.028;38.968;2024-03-08T16:02:31;53.78;;;30.67;;
49384;SDS011;36795;45.028;38.968;2024-03-08T16:05:18;57.00;;;31.30;;
49384;SDS011;36795;45.028;38.968;2024-03-08T16:08:04;57.45;;;33.72;;
49384;SDS011;36795;45.028;38.968;2024-03-08T16:10:53;57.72;;;32.17;;
49384;SDS011;36795;45.028;38.968;2024-03-08T16:13:40;55.30;;;30.95;;